sensor_id;sensor_type;location;lat;lon;timestamp;pressure;altitude;pressure_sealevel;temperature;humidity
63405;BME280;49541;57.840;12.306;2023-03-16T00:00:12;100657.88;;;-2.15;66.47
63405;BME280;49541;57.840;12.306;2023-03-16T00:05:13;100676.81;;;-2.35;67.09
63405;BME280;49541;57.840;12.306;2023-03-16T00:10:13;100674.22;;;-2.37;67.43
63405;BME280;49541;57.840;12.306;2023-03-16T00:15:14;100677.59;;;-2.07;66.37
63405;BME280;49541;57.840;12.306;2023-03-16T00:20:15;100679.09;;;-2.53;66.81
63405;BME280;49541;57.840;12.306;2023-03-16T00:25:16;100688.50;;;-2.77;67.20
63405;BME280;49541;57.840;12.306;2023-03-16T00:30:16;100693.41;;;-2.66;66.54
63405;BME280;49541;57.840;12.306;2023-03-16T00:35:16;100699.25;;;-2.58;66.67
63405;BME280;49541;57.840;12.306;2023-03-16T00:40:17;100708.38;;;-2.16;65.44
63405;BME280;49541;57.840;12.306;2023-03-16T00:45:17;100718.41;;;-2.60;66.07
63405;BME280;49541;57.840;12.306;2023-03-16T00:50:17;100714.97;;;-2.61;65.96
63405;BME280;49541;57.840;12.306;2023-03-16T00:55:21;100722.06;;;-2.36;65.68
63405;BME280;49541;57.840;12.306;2023-03-16T01:00:21;100730.25;;;-2.78;66.59
63405;BME280;49541;57.840;12.306;2023-03-16T01:05:24;100732.78;;;-2.75;66.64
63405;BME280;49541;57.840;12.306;2023-03-16T01:10:24;100731.31;;;-3.15;66.98
63405;BME280;49541;57.840;12.306;2023-03-16T01:15:24;100737.00;;;-3.34;66.92
63405;BME280;49541;57.840;12.306;2023-03-16T01:20:24;100749.16;;;-3.33;66.87
63405;BME280;49541;57.840;12.306;2023-03-16T01:25:25;100752.91;;;-2.80;66.52
63405;BME280;49541;57.840;12.306;2023-03-16T01:30:25;100758.41;;;-1.50;63.63
63405;BME280;49541;57.840;12.306;2023-03-16T01:35:25;100761.41;;;-2.16;66.10
63405;BME280;49541;57.840;12.306;2023-03-16T01:40:25;100762.69;;;-3.20;71.42
63405;BME280;49541;57.840;12.306;2023-03-16T01:50:45;100774.38;;;-3.35;72.92
63405;BME280;49541;57.840;12.306;2023-03-16T01:55:45;100778.34;;;-3.20;71.92
63405;BME280;49541;57.840;12.306;2023-03-16T02:00:45;100779.75;;;-3.77;73.96
63405;BME280;49541;57.840;12.306;2023-03-16T02:05:52;100781.50;;;-3.41;73.79
63405;BME280;49541;57.840;12.306;2023-03-16T02:10:54;100790.03;;;-3.36;71.80
63405;BME280;49541;57.840;12.306;2023-03-16T02:15:55;100798.22;;;-3.86;72.71
63405;BME280;49541;57.840;12.306;2023-03-16T02:20:56;100807.31;;;-4.04;73.03
63405;BME280;49541;57.840;12.306;2023-03-16T02:26:07;100811.44;;;-3.95;74.21
63405;BME280;49541;57.840;12.306;2023-03-16T02:31:09;100815.06;;;-3.31;72.03
63405;BME280;49541;57.840;12.306;2023-03-16T02:36:11;100808.78;;;-3.22;71.48
63405;BME280;49541;57.840;12.306;2023-03-16T02:41:13;100816.16;;;-3.74;73.31
63405;BME280;49541;57.840;12.306;2023-03-16T02:46:14;100817.25;;;-3.84;73.25
63405;BME280;49541;57.840;12.306;2023-03-16T02:51:14;100825.06;;;-3.84;72.38
63405;BME280;49541;57.840;12.306;2023-03-16T02:56:14;100832.94;;;-3.17;70.34
63405;BME280;49541;57.840;12.306;2023-03-16T03:01:15;100845.94;;;-2.82;68.18
63405;BME280;49541;57.840;12.306;2023-03-16T03:06:15;100852.63;;;-3.05;68.42
63405;BME280;49541;57.840;12.306;2023-03-16T03:11:16;100858.03;;;-3.14;68.78
63405;BME280;49541;57.840;12.306;2023-03-16T03:16:18;100858.44;;;-3.30;69.60
63405;BME280;49541;57.840;12.306;2023-03-16T03:21:18;100865.69;;;-3.41;70.24
63405;BME280;49541;57.840;12.306;2023-03-16T03:26:19;100876.94;;;-3.40;71.31
63405;BME280;49541;57.840;12.306;2023-03-16T03:31:20;100876.16;;;-3.81;71.03
63405;BME280;49541;57.840;12.306;2023-03-16T03:36:21;100877.19;;;-3.87;72.83
63405;BME280;49541;57.840;12.306;2023-03-16T03:41:21;100883.81;;;-4.13;73.48
63405;BME280;49541;57.840;12.306;2023-03-16T03:46:21;100881.31;;;-4.61;74.40
63405;BME280;49541;57.840;12.306;2023-03-16T03:51:21;100882.97;;;-4.57;73.29
63405;BME280;49541;57.840;12.306;2023-03-16T03:56:22;100891.81;;;-4.67;73.24
63405;BME280;49541;57.840;12.306;2023-03-16T04:01:22;100891.56;;;-4.53;73.08
63405;BME280;49541;57.840;12.306;2023-03-16T04:06:23;100902.56;;;-4.40;71.21
63405;BME280;49541;57.840;12.306;2023-03-16T04:11:23;100911.72;;;-3.80;69.46
63405;BME280;49541;57.840;12.306;2023-03-16T04:16:23;100908.06;;;-4.12;68.01
63405;BME280;49541;57.840;12.306;2023-03-16T04:21:25;100913.44;;;-3.81;66.27
63405;BME280;49541;57.840;12.306;2023-03-16T04:26:26;100910.34;;;-3.20;64.64
63405;BME280;49541;57.840;12.306;2023-03-16T04:31:26;100920.78;;;-3.59;65.85
63405;BME280;49541;57.840;12.306;2023-03-16T04:36:26;100911.72;;;-4.66;68.62
63405;BME280;49541;57.840;12.306;2023-03-16T04:41:27;100911.91;;;-4.75;69.72
63405;BME280;49541;57.840;12.306;2023-03-16T04:46:27;100917.88;;;-4.70;69.56
63405;BME280;49541;57.840;12.306;2023-03-16T04:51:28;100918.56;;;-5.10;69.08
63405;BME280;49541;57.840;12.306;2023-03-16T04:56:29;100926.31;;;-5.07;69.13
63405;BME280;49541;57.840;12.306;2023-03-16T05:01:29;100936.31;;;-5.38;68.88
63405;BME280;49541;57.840;12.306;2023-03-16T05:06:29;100940.88;;;-4.98;68.59
63405;BME280;49541;57.840;12.306;2023-03-16T05:11:30;100950.38;;;-4.97;67.75
63405;BME280;49541;57.840;12.306;2023-03-16T05:16:30;100964.63;;;-5.21;68.21
63405;BME280;49541;57.840;12.306;2023-03-16T05:21:30;100984.47;;;-5.17;68.11
63405;BME280;49541;57.840;12.306;2023-03-16T05:26:33;100984.44;;;-5.14;67.33
63405;BME280;49541;57.840;12.306;2023-03-16T05:31:33;100988.56;;;-5.02;66.37
63405;BME280;49541;57.840;12.306;2023-03-16T05:36:35;100997.13;;;-4.96;65.51
63405;BME280;49541;57.840;12.306;2023-03-16T05:41:35;101007.13;;;-5.27;65.58
63405;BME280;49541;57.840;12.306;2023-03-16T05:46:35;101006.69;;;-5.58;66.35
63405;BME280;49541;57.840;12.306;2023-03-16T05:51:35;101009.97;;;-5.44;66.98
63405;BME280;49541;57.840;12.306;2023-03-16T05:56:35;101013.22;;;-5.29;66.72
63405;BME280;49541;57.840;12.306;2023-03-16T06:01:36;101021.06;;;-4.75;65.06
63405;BME280;49541;57.840;12.306;2023-03-16T06:06:36;101026.47;;;-4.90;65.37
63405;BME280;49541;57.840;12.306;2023-03-16T06:11:36;101025.59;;;-4.88;65.85
63405;BME280;49541;57.840;12.306;2023-03-16T06:16:36;101034.56;;;-5.09;66.17
63405;BME280;49541;57.840;12.306;2023-03-16T06:21:36;101042.91;;;-5.49;69.69
63405;BME280;49541;57.840;12.306;2023-03-16T06:26:37;101046.72;;;-5.12;70.62
63405;BME280;49541;57.840;12.306;2023-03-16T06:31:37;101052.91;;;-4.62;71.00
63405;BME280;49541;57.840;12.306;2023-03-16T06:36:37;101055.44;;;-5.17;72.96
63405;BME280;49541;57.840;12.306;2023-03-16T06:41:38;101056.78;;;-5.53;73.52
63405;BME280;49541;57.840;12.306;2023-03-16T06:46:39;101055.50;;;-4.64;73.38
63405;BME280;49541;57.840;12.306;2023-03-16T06:51:39;101049.97;;;-4.45;72.84
63405;BME280;49541;57.840;12.306;2023-03-16T06:56:39;101053.47;;;-4.46;74.73
63405;BME280;49541;57.840;12.306;2023-03-16T07:01:39;101059.91;;;-4.69;76.75
63405;BME280;49541;57.840;12.306;2023-03-16T07:06:41;101071.19;;;-4.17;75.65
63405;BME280;49541;57.840;12.306;2023-03-16T07:11:41;101075.06;;;-3.93;75.30
63405;BME280;49541;57.840;12.306;2023-03-16T07:16:41;101086.69;;;-4.13;76.73
63405;BME280;49541;57.840;12.306;2023-03-16T07:21:41;101084.34;;;-3.38;76.59
63405;BME280;49541;57.840;12.306;2023-03-16T07:26:42;101091.25;;;-3.35;77.58
63405;BME280;49541;57.840;12.306;2023-03-16T07:31:42;101095.19;;;-3.16;78.52
63405;BME280;49541;57.840;12.306;2023-03-16T07:36:42;101100.28;;;-2.72;78.66
63405;BME280;49541;57.840;12.306;2023-03-16T07:41:42;101106.31;;;-2.70;80.89
63405;BME280;49541;57.840;12.306;2023-03-16T07:46:43;101108.38;;;-2.13;80.04
63405;BME280;49541;57.840;12.306;2023-03-16T07:51:43;101106.84;;;-1.87;78.80
63405;BME280;49541;57.840;12.306;2023-03-16T07:56:43;101114.44;;;-1.79;79.11
63405;BME280;49541;57.840;12.306;2023-03-16T08:01:44;101109.50;;;-1.89;78.85
63405;BME280;49541;57.840;12.306;2023-03-16T08:06:45;101118.06;;;-1.52;78.70
63405;BME280;49541;57.840;12.306;2023-03-16T08:11:45;101129.34;;;-1.50;79.13
63405;BME280;49541;57.840;12.306;2023-03-16T08:16:45;101125.28;;;-1.01;80.21
63405;BME280;49541;57.840;12.306;2023-03-16T08:21:46;101126.34;;;-0.78;78.00
63405;BME280;49541;57.840;12.306;2023-03-16T08:26:46;101131.84;;;-0.88;78.26
63405;BME280;49541;57.840;12.306;2023-03-16T08:31:46;101137.75;;;-0.53;77.66
63405;BME280;49541;57.840;12.306;2023-03-16T08:36:46;101142.69;;;-0.17;78.20
63405;BME280;49541;57.840;12.306;2023-03-16T08:41:47;101138.59;;;0.26;77.18
63405;BME280;49541;57.840;12.306;2023-03-16T08:46:47;101140.47;;;0.48;77.00
63405;BME280;49541;57.840;12.306;2023-03-16T08:51:47;101138.72;;;0.47;75.10
63405;BME280;49541;57.840;12.306;2023-03-16T08:56:48;101145.31;;;0.82;75.90
63405;BME280;49541;57.840;12.306;2023-03-16T09:01:48;101153.00;;;1.10;75.74
63405;BME280;49541;57.840;12.306;2023-03-16T09:06:48;101152.50;;;1.22;75.08
63405;BME280;49541;57.840;12.306;2023-03-16T09:11:52;101151.59;;;1.68;73.54
63405;BME280;49541;57.840;12.306;2023-03-16T09:16:52;101169.72;;;1.74;73.01
63405;BME280;49541;57.840;12.306;2023-03-16T09:21:52;101163.81;;;2.11;72.32
63405;BME280;49541;57.840;12.306;2023-03-16T09:26:52;101166.66;;;2.48;71.58
63405;BME280;49541;57.840;12.306;2023-03-16T09:31:53;101177.00;;;2.51;71.13
63405;BME280;49541;57.840;12.306;2023-03-16T09:36:53;101176.88;;;2.93;69.29
63405;BME280;49541;57.840;12.306;2023-03-16T09:47:13;101179.38;;;3.34;68.14
63405;BME280;49541;57.840;12.306;2023-03-16T09:57:33;101178.03;;;4.33;65.93
63405;BME280;49541;57.840;12.306;2023-03-16T10:07:43;101184.94;;;5.82;57.11
63405;BME280;49541;57.840;12.306;2023-03-16T10:12:48;101191.41;;;6.52;51.87
63405;BME280;49541;57.840;12.306;2023-03-16T10:17:58;101187.03;;;6.37;49.08
63405;BME280;49541;57.840;12.306;2023-03-16T10:23:00;101195.75;;;6.39;44.12
63405;BME280;49541;57.840;12.306;2023-03-16T10:28:12;101203.72;;;6.68;43.15
63405;BME280;49541;57.840;12.306;2023-03-16T10:33:27;101193.84;;;6.41;42.25
63405;BME280;49541;57.840;12.306;2023-03-16T10:38:41;101207.75;;;6.59;41.42
63405;BME280;49541;57.840;12.306;2023-03-16T10:43:49;101204.28;;;6.73;38.71
63405;BME280;49541;57.840;12.306;2023-03-16T10:48:54;101199.00;;;7.02;34.89
63405;BME280;49541;57.840;12.306;2023-03-16T10:54:08;101202.41;;;6.89;34.40
63405;BME280;49541;57.840;12.306;2023-03-16T10:59:14;101201.91;;;6.68;35.88
63405;BME280;49541;57.840;12.306;2023-03-16T11:04:14;101197.53;;;7.39;34.57
63405;BME280;49541;57.840;12.306;2023-03-16T11:09:18;101188.44;;;7.43;33.60
63405;BME280;49541;57.840;12.306;2023-03-16T11:14:20;101199.31;;;7.53;33.25
63405;BME280;49541;57.840;12.306;2023-03-16T11:19:23;101188.34;;;7.99;32.25
63405;BME280;49541;57.840;12.306;2023-03-16T11:34:58;101167.97;;;8.65;30.60
63405;BME280;49541;57.840;12.306;2023-03-16T11:45:03;101174.44;;;8.99;28.38
63405;BME280;49541;57.840;12.306;2023-03-16T11:50:13;101174.66;;;8.84;29.27
63405;BME280;49541;57.840;12.306;2023-03-16T12:00:59;101163.69;;;8.88;28.77
63405;BME280;49541;57.840;12.306;2023-03-16T12:05:45;101165.75;;;8.59;28.17
63405;BME280;49541;57.840;12.306;2023-03-16T12:10:57;101165.78;;;8.32;29.35
63405;BME280;49541;57.840;12.306;2023-03-16T12:16:14;101155.22;;;8.83;29.02
63405;BME280;49541;57.840;12.306;2023-03-16T12:21:24;101146.50;;;8.94;27.59
63405;BME280;49541;57.840;12.306;2023-03-16T12:26:26;101145.25;;;8.74;25.32
63405;BME280;49541;57.840;12.306;2023-03-16T12:31:34;101141.59;;;8.24;27.07
63405;BME280;49541;57.840;12.306;2023-03-16T12:51:57;101119.53;;;8.74;26.79
63405;BME280;49541;57.840;12.306;2023-03-16T12:56:59;101111.09;;;8.56;28.83
63405;BME280;49541;57.840;12.306;2023-03-16T13:02:00;101116.91;;;9.11;28.22
63405;BME280;49541;57.840;12.306;2023-03-16T13:12:06;101107.38;;;8.46;31.48
63405;BME280;49541;57.840;12.306;2023-03-16T13:27:26;101096.66;;;9.34;29.04
63405;BME280;49541;57.840;12.306;2023-03-16T13:32:29;101089.47;;;9.23;31.61
63405;BME280;49541;57.840;12.306;2023-03-16T13:37:30;101083.97;;;9.14;31.24
63405;BME280;49541;57.840;12.306;2023-03-16T13:42:31;101074.81;;;8.81;29.85
63405;BME280;49541;57.840;12.306;2023-03-16T13:47:32;101076.28;;;8.85;31.05
63405;BME280;49541;57.840;12.306;2023-03-16T13:52:33;101069.94;;;9.12;29.32
63405;BME280;49541;57.840;12.306;2023-03-16T13:57:35;101078.13;;;9.57;28.40
63405;BME280;49541;57.840;12.306;2023-03-16T14:02:40;101083.47;;;8.59;30.73
63405;BME280;49541;57.840;12.306;2023-03-16T14:07:41;101073.78;;;8.71;30.36
63405;BME280;49541;57.840;12.306;2023-03-16T14:12:51;101073.91;;;8.69;30.00
63405;BME280;49541;57.840;12.306;2023-03-16T14:17:52;101069.75;;;8.39;31.40
63405;BME280;49541;57.840;12.306;2023-03-16T14:22:52;101066.13;;;8.28;32.05
63405;BME280;49541;57.840;12.306;2023-03-16T14:28:00;101065.72;;;8.08;32.45
63405;BME280;49541;57.840;12.306;2023-03-16T14:43:32;101056.16;;;7.80;33.39
63405;BME280;49541;57.840;12.306;2023-03-16T14:48:34;101045.59;;;7.40;34.62
63405;BME280;49541;57.840;12.306;2023-03-16T14:53:35;101050.31;;;7.75;33.30
63405;BME280;49541;57.840;12.306;2023-03-16T14:58:36;101053.03;;;7.61;32.62
63405;BME280;49541;57.840;12.306;2023-03-16T15:03:36;101041.59;;;7.60;35.31
63405;BME280;49541;57.840;12.306;2023-03-16T15:08:37;101035.59;;;7.96;32.68
63405;BME280;49541;57.840;12.306;2023-03-16T15:13:43;101030.03;;;7.61;34.04
63405;BME280;49541;57.840;12.306;2023-03-16T15:18:43;101028.03;;;7.65;36.09
63405;BME280;49541;57.840;12.306;2023-03-16T15:23:43;101038.25;;;7.96;34.36
63405;BME280;49541;57.840;12.306;2023-03-16T15:28:43;101033.97;;;7.28;36.20
63405;BME280;49541;57.840;12.306;2023-03-16T15:33:44;101016.94;;;7.32;36.66
63405;BME280;49541;57.840;12.306;2023-03-16T15:38:45;101019.28;;;7.37;35.05
63405;BME280;49541;57.840;12.306;2023-03-16T15:43:46;101032.56;;;7.23;34.88
63405;BME280;49541;57.840;12.306;2023-03-16T15:48:46;101026.28;;;7.11;36.42
63405;BME280;49541;57.840;12.306;2023-03-16T15:53:47;101028.81;;;7.39;36.18
63405;BME280;49541;57.840;12.306;2023-03-16T15:58:49;101023.84;;;7.08;36.97
63405;BME280;49541;57.840;12.306;2023-03-16T16:03:50;101019.59;;;7.32;35.36
63405;BME280;49541;57.840;12.306;2023-03-16T16:08:50;101014.94;;;7.09;36.45
63405;BME280;49541;57.840;12.306;2023-03-16T16:13:51;101006.03;;;6.97;38.10
63405;BME280;49541;57.840;12.306;2023-03-16T16:18:52;101008.94;;;6.92;39.03
63405;BME280;49541;57.840;12.306;2023-03-16T16:23:52;101005.75;;;6.87;37.10
63405;BME280;49541;57.840;12.306;2023-03-16T16:28:52;101005.25;;;6.68;38.54
63405;BME280;49541;57.840;12.306;2023-03-16T16:33:53;101005.94;;;6.43;40.46
63405;BME280;49541;57.840;12.306;2023-03-16T16:38:53;100996.53;;;6.24;38.73
63405;BME280;49541;57.840;12.306;2023-03-16T16:43:56;100989.44;;;6.39;38.65
63405;BME280;49541;57.840;12.306;2023-03-16T16:48:57;100992.44;;;6.33;37.40
63405;BME280;49541;57.840;12.306;2023-03-16T16:53:58;100983.75;;;6.17;38.46
63405;BME280;49541;57.840;12.306;2023-03-16T16:59:00;100982.63;;;6.06;38.68
63405;BME280;49541;57.840;12.306;2023-03-16T17:04:01;100974.00;;;5.88;38.99
63405;BME280;49541;57.840;12.306;2023-03-16T17:09:01;100962.31;;;5.92;38.66
63405;BME280;49541;57.840;12.306;2023-03-16T17:14:02;100961.44;;;5.78;38.14
63405;BME280;49541;57.840;12.306;2023-03-16T17:19:05;100958.22;;;5.87;37.01
63405;BME280;49541;57.840;12.306;2023-03-16T17:24:06;100945.09;;;5.42;39.04
63405;BME280;49541;57.840;12.306;2023-03-16T17:29:14;100941.91;;;5.66;38.33
63405;BME280;49541;57.840;12.306;2023-03-16T17:34:17;100935.75;;;5.51;37.13
63405;BME280;49541;57.840;12.306;2023-03-16T17:39:18;100938.16;;;5.25;39.01
63405;BME280;49541;57.840;12.306;2023-03-16T17:44:20;100938.56;;;5.48;36.78
63405;BME280;49541;57.840;12.306;2023-03-16T17:49:20;100931.13;;;5.40;36.17
63405;BME280;49541;57.840;12.306;2023-03-16T17:54:23;100929.25;;;5.42;35.60
63405;BME280;49541;57.840;12.306;2023-03-16T17:59:23;100918.66;;;5.42;34.34
63405;BME280;49541;57.840;12.306;2023-03-16T18:04:24;100932.75;;;5.71;32.79
63405;BME280;49541;57.840;12.306;2023-03-16T18:09:24;100962.75;;;6.56;29.91
63405;BME280;49541;57.840;12.306;2023-03-16T18:14:27;100939.56;;;6.19;30.30
63405;BME280;49541;57.840;12.306;2023-03-16T18:19:33;100944.81;;;5.61;31.87
63405;BME280;49541;57.840;12.306;2023-03-16T18:24:34;100944.59;;;5.36;33.93
63405;BME280;49541;57.840;12.306;2023-03-16T18:29:35;100950.03;;;5.32;33.21
63405;BME280;49541;57.840;12.306;2023-03-16T18:34:35;100941.84;;;5.07;34.15
63405;BME280;49541;57.840;12.306;2023-03-16T18:39:35;100928.56;;;5.08;33.98
63405;BME280;49541;57.840;12.306;2023-03-16T18:44:35;100934.19;;;5.32;35.67
63405;BME280;49541;57.840;12.306;2023-03-16T18:49:36;100924.34;;;5.06;33.07
63405;BME280;49541;57.840;12.306;2023-03-16T18:54:36;100927.41;;;5.28;33.41
63405;BME280;49541;57.840;12.306;2023-03-16T18:59:37;100922.06;;;5.14;33.75
63405;BME280;49541;57.840;12.306;2023-03-16T19:04:37;100905.19;;;5.02;35.16
63405;BME280;49541;57.840;12.306;2023-03-16T19:09:37;100906.38;;;4.97;35.92
63405;BME280;49541;57.840;12.306;2023-03-16T19:14:38;100904.16;;;5.05;36.31
63405;BME280;49541;57.840;12.306;2023-03-16T19:19:38;100899.81;;;4.74;39.40
63405;BME280;49541;57.840;12.306;2023-03-16T19:29:39;100913.91;;;5.33;35.71
63405;BME280;49541;57.840;12.306;2023-03-16T19:34:40;100909.72;;;4.54;39.56
63405;BME280;49541;57.840;12.306;2023-03-16T19:39:40;100907.81;;;4.72;40.46
63405;BME280;49541;57.840;12.306;2023-03-16T19:44:41;100892.03;;;4.86;39.78
63405;BME280;49541;57.840;12.306;2023-03-16T19:49:42;100889.03;;;4.92;39.91
63405;BME280;49541;57.840;12.306;2023-03-16T19:54:43;100896.72;;;4.81;39.00
63405;BME280;49541;57.840;12.306;2023-03-16T19:59:48;100899.56;;;4.92;39.69
63405;BME280;49541;57.840;12.306;2023-03-16T20:04:49;100891.28;;;5.29;37.81
63405;BME280;49541;57.840;12.306;2023-03-16T20:09:49;100881.59;;;5.29;38.04
63405;BME280;49541;57.840;12.306;2023-03-16T20:14:50;100882.19;;;5.04;39.76
63405;BME280;49541;57.840;12.306;2023-03-16T20:19:51;100865.69;;;4.70;39.99
63405;BME280;49541;57.840;12.306;2023-03-16T20:24:51;100842.53;;;4.76;39.83
63405;BME280;49541;57.840;12.306;2023-03-16T20:29:53;100847.94;;;4.58;39.00
63405;BME280;49541;57.840;12.306;2023-03-16T20:34:53;100868.34;;;4.55;38.97
63405;BME280;49541;57.840;12.306;2023-03-16T20:39:54;100860.66;;;4.66;38.28
63405;BME280;49541;57.840;12.306;2023-03-16T20:44:55;100854.50;;;4.81;37.83
63405;BME280;49541;57.840;12.306;2023-03-16T20:49:55;100858.66;;;4.85;38.24
63405;BME280;49541;57.840;12.306;2023-03-16T20:54:59;100851.94;;;5.10;37.01
63405;BME280;49541;57.840;12.306;2023-03-16T21:00:00;100843.16;;;4.65;37.95
63405;BME280;49541;57.840;12.306;2023-03-16T21:05:01;100827.59;;;4.90;36.92
63405;BME280;49541;57.840;12.306;2023-03-16T21:10:02;100803.72;;;4.47;39.38
63405;BME280;49541;57.840;12.306;2023-03-16T21:15:07;100812.78;;;4.58;36.95
63405;BME280;49541;57.840;12.306;2023-03-16T21:20:17;100802.50;;;4.83;36.21
63405;BME280;49541;57.840;12.306;2023-03-16T21:25:22;100792.28;;;4.33;39.40
63405;BME280;49541;57.840;12.306;2023-03-16T21:30:36;100794.69;;;4.51;36.24
63405;BME280;49541;57.840;12.306;2023-03-16T21:35:37;100801.09;;;4.78;34.95
63405;BME280;49541;57.840;12.306;2023-03-16T21:40:37;100796.78;;;4.30;38.06
63405;BME280;49541;57.840;12.306;2023-03-16T21:45:38;100795.63;;;4.50;34.53
63405;BME280;49541;57.840;12.306;2023-03-16T21:50:39;100778.38;;;4.45;35.33
63405;BME280;49541;57.840;12.306;2023-03-16T21:55:39;100769.94;;;4.54;34.47
63405;BME280;49541;57.840;12.306;2023-03-16T22:00:39;100780.09;;;4.46;35.48
63405;BME280;49541;57.840;12.306;2023-03-16T22:05:39;100762.41;;;4.62;34.21
63405;BME280;49541;57.840;12.306;2023-03-16T22:10:41;100735.81;;;4.21;36.16
63405;BME280;49541;57.840;12.306;2023-03-16T22:15:41;100730.19;;;4.27;34.77
63405;BME280;49541;57.840;12.306;2023-03-16T22:20:42;100752.69;;;4.48;31.95
63405;BME280;49541;57.840;12.306;2023-03-16T22:25:42;100764.34;;;4.44;32.63
63405;BME280;49541;57.840;12.306;2023-03-16T22:30:43;100775.84;;;4.88;31.49
63405;BME280;49541;57.840;12.306;2023-03-16T22:35:43;100761.13;;;4.39;31.89
63405;BME280;49541;57.840;12.306;2023-03-16T22:40:43;100734.25;;;4.63;31.46
63405;BME280;49541;57.840;12.306;2023-03-16T22:45:44;100740.97;;;4.83;31.05
63405;BME280;49541;57.840;12.306;2023-03-16T22:50:44;100733.25;;;4.94;29.50
63405;BME280;49541;57.840;12.306;2023-03-16T22:55:45;100747.38;;;4.79;30.06
63405;BME280;49541;57.840;12.306;2023-03-16T23:00:45;100751.69;;;4.35;32.53
63405;BME280;49541;57.840;12.306;2023-03-16T23:05:46;100747.03;;;4.55;30.15
63405;BME280;49541;57.840;12.306;2023-03-16T23:10:46;100737.81;;;4.62;31.21
63405;BME280;49541;57.840;12.306;2023-03-16T23:15:47;100714.84;;;4.64;32.33
63405;BME280;49541;57.840;12.306;2023-03-16T23:20:48;100704.28;;;4.64;31.02
63405;BME280;49541;57.840;12.306;2023-03-16T23:25:48;100706.84;;;4.65;31.10
63405;BME280;49541;57.840;12.306;2023-03-16T23:30:48;100707.13;;;4.75;31.21
63405;BME280;49541;57.840;12.306;2023-03-16T23:35:49;100713.31;;;4.60;31.13
63405;BME280;49541;57.840;12.306;2023-03-16T23:40:49;100697.66;;;4.42;31.94
63405;BME280;49541;57.840;12.306;2023-03-16T23:45:49;100694.88;;;4.45;31.85
63405;BME280;49541;57.840;12.306;2023-03-16T23:50:51;100697.31;;;4.48;32.28
63405;BME280;49541;57.840;12.306;2023-03-16T23:55:53;100697.84;;;4.39;32.92
